createdAt,value
2018-08-10T00:03:00.926Z,100030.41
2018-08-10T00:08:04.839Z,100046.67
2018-08-10T00:13:08.742Z,100050.08
2018-08-10T00:18:12.560Z,100054.42
2018-08-10T00:23:16.519Z,100053.16
2018-08-10T00:28:20.335Z,100053.32
2018-08-10T00:33:24.234Z,100061.77
2018-08-10T00:38:28.090Z,100068.40
2018-08-10T00:43:31.927Z,100072.45
2018-08-10T00:48:35.798Z,100086.14
2018-08-10T00:53:39.650Z,100105.28
2018-08-10T00:58:45.054Z,100118.02
2018-08-10T01:03:49.711Z,100117.17
2018-08-10T01:08:54.571Z,100128.20
2018-08-10T01:13:58.464Z,100124.63
2018-08-10T01:19:02.373Z,100134.73
2018-08-10T01:24:06.231Z,100148.16
2018-08-10T01:29:10.175Z,100152.67
2018-08-10T01:34:14.107Z,100170.92
2018-08-10T01:39:18.040Z,100161.72
2018-08-10T01:44:22.004Z,100150.00
2018-08-10T01:49:26.006Z,100146.61
2018-08-10T01:54:29.971Z,100162.05
2018-08-10T01:59:33.843Z,100162.91
2018-08-10T02:04:37.702Z,100159.48
2018-08-10T02:09:41.590Z,100170.00
2018-08-10T02:14:45.433Z,100172.84
2018-08-10T02:19:49.290Z,100179.28
2018-08-10T02:24:53.209Z,100183.67
2018-08-10T02:29:57.217Z,100181.65
2018-08-10T02:35:02.345Z,100187.94
2018-08-10T02:40:12.511Z,100190.73
2018-08-10T02:45:16.782Z,100184.59
2018-08-10T02:50:20.556Z,100190.03
2018-08-10T02:55:24.534Z,100197.83
2018-08-10T03:00:28.556Z,100205.39
2018-08-10T03:05:32.495Z,100204.73
2018-08-10T03:10:36.265Z,100210.82
2018-08-10T03:15:40.085Z,100236.63
2018-08-10T03:20:44.024Z,100236.04
2018-08-10T03:25:47.891Z,100234.17
2018-08-10T03:30:51.711Z,100229.12
2018-08-10T03:35:55.502Z,100234.75
2018-08-10T03:40:59.388Z,100251.80
2018-08-10T03:46:03.277Z,100254.35
2018-08-10T03:51:07.226Z,100264.21
2018-08-10T03:56:11.074Z,100269.67
2018-08-10T04:01:14.901Z,100281.80
2018-08-10T04:06:18.754Z,100291.56
2018-08-10T04:11:22.769Z,100296.62
2018-08-10T04:16:26.673Z,100310.73
2018-08-10T04:21:30.590Z,100318.33
2018-08-10T04:26:35.047Z,100331.73
2018-08-10T04:31:38.984Z,100342.05
2018-08-10T04:36:42.927Z,100359.16
2018-08-10T04:41:46.739Z,100388.20
2018-08-10T04:46:50.606Z,100402.58
2018-08-10T04:51:54.674Z,100420.58
2018-08-10T04:56:59.508Z,100427.07
2018-08-10T05:02:03.330Z,100417.94
2018-08-10T05:07:07.157Z,100419.10
2018-08-10T05:12:11.057Z,100430.95
2018-08-10T05:17:16.107Z,100449.45
2018-08-10T05:22:19.972Z,100451.88
2018-08-10T05:27:23.841Z,100471.38
2018-08-10T05:32:27.772Z,100484.15
2018-08-10T05:37:31.644Z,100500.22
2018-08-10T05:42:35.491Z,100501.45
2018-08-10T05:47:39.299Z,100513.23
2018-08-10T05:52:43.004Z,100518.37
2018-08-10T05:57:46.879Z,100527.63
2018-08-10T06:02:50.747Z,100523.41
2018-08-10T06:07:54.559Z,100515.52
2018-08-10T06:12:58.391Z,100526.47
2018-08-10T06:18:02.219Z,100541.36
2018-08-10T06:23:06.062Z,100544.81
2018-08-10T06:28:10.014Z,100550.84
2018-08-10T06:33:13.888Z,100558.50
2018-08-10T06:38:17.812Z,100564.88
2018-08-10T06:43:21.663Z,100573.41
2018-08-10T06:48:25.542Z,100578.19
2018-08-10T06:53:30.118Z,100586.66
2018-08-10T06:58:34.041Z,100587.99
2018-08-10T07:03:37.899Z,100594.09
2018-08-10T07:08:41.860Z,100600.77
2018-08-10T07:13:45.863Z,100618.02
2018-08-10T07:18:49.638Z,100629.70
2018-08-10T07:23:53.593Z,100645.49
2018-08-10T07:28:57.404Z,100645.27
2018-08-10T07:34:01.456Z,100663.40
2018-08-10T07:39:08.704Z,100660.75
2018-08-10T07:44:12.596Z,100667.81
2018-08-10T07:49:16.502Z,100662.80
2018-08-10T07:54:20.393Z,100666.25
2018-08-10T07:59:24.384Z,100677.10
2018-08-10T08:04:28.265Z,100677.61
2018-08-10T08:09:33.102Z,100691.42
2018-08-10T08:14:37.030Z,100691.06
2018-08-10T08:19:41.145Z,100697.98
2018-08-10T08:24:45.357Z,100707.18
2018-08-10T08:29:50.308Z,100708.13
2018-08-10T08:34:55.168Z,100714.64
2018-08-10T08:40:12.274Z,100724.39
2018-08-10T08:46:19.327Z,100724.66
2018-08-10T08:51:25.483Z,100724.02
2018-08-10T08:56:38.142Z,100726.87
2018-08-10T09:01:42.649Z,100732.11
2018-08-10T09:06:50.270Z,100751.63
2018-08-10T09:11:57.073Z,100745.97
2018-08-10T09:17:03.811Z,100743.84
2018-08-10T09:22:08.204Z,100738.34
2018-08-10T09:27:13.373Z,100741.07
2018-08-10T09:32:17.299Z,100743.16
2018-08-10T09:37:21.148Z,100751.53
2018-08-10T09:48:19.269Z,100749.99
2018-08-10T09:53:23.055Z,100752.78
2018-08-10T09:58:26.782Z,100755.89
2018-08-10T10:03:30.478Z,100752.23
2018-08-10T10:08:34.311Z,100748.44
2018-08-10T10:13:39.387Z,100742.52
2018-08-10T10:18:44.079Z,100752.80
2018-08-10T10:23:48.046Z,100755.30
2018-08-10T10:28:51.866Z,100742.04
2018-08-10T10:33:55.722Z,100749.46
2018-08-10T10:38:59.598Z,100734.25
2018-08-10T10:44:03.540Z,100745.91
2018-08-10T10:49:07.415Z,100756.48
2018-08-10T10:54:11.276Z,100744.00
2018-08-10T10:59:16.392Z,100752.56
2018-08-10T11:04:20.841Z,100758.56
2018-08-10T11:09:24.656Z,100758.94
2018-08-10T11:14:28.510Z,100775.45
2018-08-10T11:19:32.394Z,100770.70
2018-08-10T11:24:36.326Z,100768.28
2018-08-10T11:29:40.253Z,100764.69
2018-08-10T11:34:44.802Z,100768.51
2018-08-10T11:39:48.695Z,100777.39
2018-08-10T11:44:52.600Z,100771.19
2018-08-10T11:49:56.506Z,100771.91
2018-08-10T11:55:01.665Z,100772.70
2018-08-10T12:00:08.456Z,100769.44
2018-08-10T12:05:13.611Z,100774.62
2018-08-10T12:10:17.449Z,100766.18
2018-08-10T12:15:21.391Z,100770.78
2018-08-10T12:20:25.549Z,100762.36
2018-08-10T12:25:29.475Z,100767.18
2018-08-10T12:30:35.022Z,100758.22
2018-08-10T12:35:39.000Z,100752.08
2018-08-10T12:40:42.937Z,100748.88
2018-08-10T12:45:46.853Z,100759.47
2018-08-10T12:50:50.816Z,100754.31
2018-08-10T12:55:54.674Z,100748.66
2018-08-10T13:00:58.589Z,100746.08
2018-08-10T13:06:02.532Z,100740.78
2018-08-10T13:11:06.605Z,100748.92
2018-08-10T13:16:10.559Z,100732.50
2018-08-10T13:21:14.564Z,100728.42
2018-08-10T13:26:18.541Z,100730.14
2018-08-10T13:31:22.471Z,100734.19
2018-08-10T13:36:26.412Z,100725.19
2018-08-10T13:41:30.991Z,100727.89
2018-08-10T13:46:34.861Z,100722.45
2018-08-10T13:51:38.729Z,100719.59
2018-08-10T13:56:42.600Z,100721.33
2018-08-10T14:01:46.506Z,100735.38
2018-08-10T14:06:51.635Z,100736.98
2018-08-10T14:11:55.471Z,100728.73
2018-08-10T14:17:00.461Z,100721.84
2018-08-10T14:22:04.498Z,100718.18
2018-08-10T14:27:08.584Z,100719.23
2018-08-10T14:32:13.332Z,100712.95
2018-08-10T14:37:17.208Z,100713.48
2018-08-10T14:42:21.137Z,100699.23
2018-08-10T14:47:25.098Z,100699.23
2018-08-10T14:52:29.070Z,100706.05
2018-08-10T14:57:33.142Z,100708.86
2018-08-10T15:02:37.856Z,100699.15
2018-08-10T15:07:45.004Z,100700.95
2018-08-10T15:12:49.136Z,100697.77
2018-08-10T15:17:53.214Z,100695.77
2018-08-10T15:22:57.409Z,100693.84
2018-08-10T15:28:01.606Z,100691.92
2018-08-10T15:33:06.902Z,100683.41
2018-08-10T15:38:11.104Z,100679.69
2018-08-10T15:43:15.112Z,100687.19
2018-08-10T15:48:19.180Z,100674.89
2018-08-10T15:53:23.318Z,100672.59
2018-08-10T15:58:27.381Z,100671.64
2018-08-10T16:03:31.278Z,100669.42
2018-08-10T16:08:35.597Z,100675.50
2018-08-10T16:13:40.339Z,100667.51
2018-08-10T16:18:45.323Z,100668.06
2018-08-10T16:23:50.898Z,100664.94
2018-08-10T16:28:56.527Z,100673.59
2018-08-10T16:34:03.733Z,100674.58
2018-08-10T16:39:09.934Z,100668.96
2018-08-10T16:44:14.707Z,100669.83
2018-08-10T16:49:19.869Z,100666.22
2018-08-10T16:54:24.700Z,100659.09
2018-08-10T16:59:29.840Z,100656.48
2018-08-10T17:04:33.786Z,100653.67
2018-08-10T17:09:38.803Z,100659.11
2018-08-10T17:14:45.027Z,100657.34
2018-08-10T17:19:49.237Z,100657.09
2018-08-10T17:24:54.292Z,100665.42
2018-08-10T17:29:59.278Z,100663.42
2018-08-10T17:35:04.053Z,100658.31
2018-08-10T17:40:09.931Z,100666.36
2018-08-10T17:45:16.048Z,100664.78
2018-08-10T17:50:21.279Z,100667.86
2018-08-10T17:55:25.715Z,100680.84
2018-08-10T18:00:30.050Z,100672.80
2018-08-10T18:05:34.210Z,100679.38
2018-08-10T18:10:39.349Z,100691.98
2018-08-10T18:15:44.261Z,100695.48
2018-08-10T18:20:48.235Z,100698.98
2018-08-10T18:25:52.194Z,100704.87
2018-08-10T18:30:56.269Z,100703.80
2018-08-10T18:36:00.363Z,100705.91
2018-08-10T18:41:04.321Z,100708.98
2018-08-10T18:46:08.564Z,100712.28
2018-08-10T18:51:12.465Z,100717.88
2018-08-10T18:56:17.461Z,100717.02
2018-08-10T19:01:22.454Z,100714.03
2018-08-10T19:06:26.779Z,100716.55
2018-08-10T19:11:30.815Z,100720.09
2018-08-10T19:16:35.370Z,100724.39
2018-08-10T19:21:39.254Z,100721.70
2018-08-10T19:26:43.262Z,100720.12
2018-08-10T19:31:47.348Z,100722.36
2018-08-10T19:36:52.331Z,100727.52
2018-08-10T19:41:56.523Z,100732.56
2018-08-10T19:47:00.467Z,100731.48
2018-08-10T19:52:04.576Z,100736.16
2018-08-10T19:57:08.568Z,100735.80
2018-08-10T20:02:15.661Z,100735.48
2018-08-10T20:07:19.788Z,100733.03
2018-08-10T20:12:23.693Z,100733.86
2018-08-10T20:17:27.479Z,100734.04
2018-08-10T20:22:31.605Z,100728.52
2018-08-10T20:27:35.589Z,100734.77
2018-08-10T20:32:39.721Z,100728.22
2018-08-10T20:37:44.095Z,100723.42
2018-08-10T20:42:50.261Z,100732.27
2018-08-10T20:47:56.926Z,100725.13
2018-08-10T20:53:02.009Z,100731.07
2018-08-10T20:58:05.972Z,100728.49
2018-08-10T21:03:09.861Z,100725.04
2018-08-10T21:08:13.879Z,100719.59
2018-08-10T21:13:17.910Z,100714.55
2018-08-10T21:18:21.679Z,100715.64
2018-08-10T21:23:25.508Z,100716.89
2018-08-10T21:28:29.404Z,100712.72
2018-08-10T21:33:33.384Z,100708.74
2018-08-10T21:38:37.268Z,100714.08
2018-08-10T21:43:41.156Z,100718.52
2018-08-10T21:48:45.037Z,100707.90
2018-08-10T21:53:48.900Z,100715.16
2018-08-10T21:58:52.737Z,100721.75
2018-08-10T22:03:56.996Z,100729.63
2018-08-10T22:09:00.949Z,100730.49
2018-08-10T22:14:11.165Z,100725.34
2018-08-10T22:19:16.458Z,100722.13
2018-08-10T22:24:20.328Z,100733.97
2018-08-10T22:29:24.314Z,100732.98
2018-08-10T22:34:28.280Z,100738.55
2018-08-10T22:39:32.511Z,100736.70
2018-08-10T22:44:36.452Z,100730.52
2018-08-10T22:49:40.591Z,100730.41
2018-08-10T22:54:44.625Z,100728.80
2018-08-10T22:59:49.478Z,100722.13
2018-08-10T23:04:53.303Z,100722.52
2018-08-10T23:09:57.495Z,100715.86
2018-08-10T23:15:06.237Z,100715.50
2018-08-10T23:20:14.025Z,100702.18
2018-08-10T23:25:17.911Z,100700.83
2018-08-10T23:30:21.831Z,100703.39
2018-08-10T23:35:26.244Z,100698.60
2018-08-10T23:40:30.406Z,100694.77
2018-08-10T23:45:34.350Z,100694.91
2018-08-10T23:50:38.273Z,100683.68
2018-08-10T23:55:42.220Z,100674.06
